Time;durP1;ratioP1;P1;durP2;ratioP2;P2;SDS_P1;SDS_P2;PMS_P1;PMS_P2;Temp;Humidity;BMP_temperature;BMP_pressure;BME280_temperature;BME280_humidity;BME280_pressure;Samples;Min_cycle;Max_cycle;Signal;HPM_P1;HPM_P2
2022/10/06 00:02:34;;;;;;;4.73;3.33;;;14.60;99.90;;;;;;10448052;28;20220;-75
2022/10/06 00:07:35;;;;;;;4.93;2.57;;;14.50;99.90;;;;;;10450195;28;20220;-74
2022/10/06 00:12:44;;;;;;;6.03;2.80;;;14.50;99.90;;;;;;10448962;28;20243;-77
2022/10/06 00:17:45;;;;;;;6.27;3.47;;;14.50;99.90;;;;;;10448344;28;20277;-76
2022/10/06 00:22:47;;;;;;;4.07;3.20;;;14.50;99.90;;;;;;10448491;28;20272;-76
2022/10/06 00:27:49;;;;;;;7.10;3.40;;;14.50;99.90;;;;;;10448679;28;20227;-75
2022/10/06 00:33:11;;;;;;;4.67;3.23;;;14.60;99.90;;;;;;10446900;28;20228;-74
2022/10/06 00:38:13;;;;;;;8.00;3.10;;;14.60;99.90;;;;;;10440791;28;20253;-74
2022/10/06 00:43:52;;;;;;;6.87;3.20;;;14.60;99.90;;;;;;10440086;28;20622;-74
2022/10/06 00:49:01;;;;;;;8.50;3.33;;;14.60;99.90;;;;;;10446266;28;20222;-74
2022/10/06 00:54:02;;;;;;;6.43;3.10;;;14.70;99.90;;;;;;10444565;28;20267;-74
2022/10/06 00:59:02;;;;;;;4.17;3.10;;;14.70;99.90;;;;;;10447955;28;20219;-74
2022/10/06 01:04:08;;;;;;;5.90;3.33;;;14.80;99.90;;;;;;10446744;28;20698;-79
2022/10/06 01:09:08;;;;;;;6.77;3.17;;;14.80;99.90;;;;;;10445847;28;20314;-78
2022/10/06 01:14:10;;;;;;;6.60;3.13;;;14.70;99.90;;;;;;10447054;28;20999;-80
2022/10/06 01:19:39;;;;;;;4.33;2.80;;;14.70;99.90;;;;;;10447433;28;20319;-79
2022/10/06 01:24:39;;;;;;;4.83;3.00;;;14.60;99.90;;;;;;10454043;28;20269;-78
2022/10/06 01:29:44;;;;;;;3.83;2.97;;;14.80;99.90;;;;;;10447737;28;20314;-79
2022/10/06 01:34:44;;;;;;;3.40;2.80;;;14.90;99.90;;;;;;10445014;28;20216;-78
2022/10/06 01:39:45;;;;;;;7.47;3.40;;;15.00;99.90;;;;;;10447788;28;20215;-77
2022/10/06 01:44:45;;;;;;;6.03;3.00;;;15.10;99.90;;;;;;10446826;28;20234;-78
2022/10/06 01:49:46;;;;;;;5.47;3.23;;;15.20;99.90;;;;;;10446650;28;20219;-78
2022/10/06 01:54:46;;;;;;;3.83;2.70;;;15.30;99.90;;;;;;10445681;28;20226;-79
2022/10/06 01:59:50;;;;;;;4.73;3.13;;;15.30;99.90;;;;;;10447294;28;20326;-79
2022/10/06 02:04:51;;;;;;;6.33;3.10;;;15.30;99.90;;;;;;10444842;28;20220;-78
2022/10/06 02:09:51;;;;;;;5.87;3.50;;;15.30;99.90;;;;;;10443670;28;20220;-77
2022/10/06 02:14:55;;;;;;;7.70;3.17;;;15.30;99.90;;;;;;10450155;28;20223;-77
2022/10/06 02:19:55;;;;;;;10.53;3.97;;;15.40;99.90;;;;;;10452034;28;20573;-77
2022/10/06 02:24:56;;;;;;;7.03;3.03;;;15.40;99.90;;;;;;10453042;28;20220;-78
2022/10/06 02:29:56;;;;;;;5.87;3.40;;;15.60;99.90;;;;;;10452275;28;20316;-77
2022/10/06 02:34:59;;;;;;;7.80;3.77;;;15.80;99.90;;;;;;10453285;28;20663;-78
2022/10/06 02:39:59;;;;;;;9.40;3.00;;;15.80;99.90;;;;;;10452218;28;20216;-78
2022/10/06 02:45:00;;;;;;;6.30;3.67;;;15.90;99.90;;;;;;10451208;28;20220;-77
2022/10/06 02:50:04;;;;;;;7.67;3.20;;;15.90;99.90;;;;;;10450739;28;20326;-77
2022/10/06 02:55:05;;;;;;;7.03;3.60;;;15.90;99.90;;;;;;10452211;28;20224;-77
2022/10/06 03:00:07;;;;;;;10.60;3.53;;;15.90;99.90;;;;;;10450513;28;20188;-78
2022/10/06 03:05:08;;;;;;;4.43;3.30;;;15.80;99.90;;;;;;10451952;28;20630;-77
2022/10/06 03:10:08;;;;;;;6.13;2.80;;;15.80;99.90;;;;;;10451312;28;20220;-76
2022/10/06 03:15:09;;;;;;;6.20;3.37;;;15.80;99.90;;;;;;10469820;28;20274;-77
2022/10/06 03:20:10;;;;;;;6.73;3.17;;;15.70;99.90;;;;;;10427291;28;20573;-78
2022/10/06 03:25:10;;;;;;;5.37;2.90;;;15.70;99.90;;;;;;10410156;28;20225;-76
2022/10/06 03:30:11;;;;;;;8.03;2.70;;;15.60;99.90;;;;;;10449842;28;20247;-77
2022/10/06 03:35:12;;;;;;;4.10;2.57;;;15.60;99.90;;;;;;10450199;28;20188;-78
2022/10/06 03:40:13;;;;;;;3.07;2.43;;;15.60;99.90;;;;;;10449357;28;20643;-79
2022/10/06 03:45:14;;;;;;;7.50;2.07;;;15.50;99.90;;;;;;10458875;28;20564;-78
2022/10/06 03:50:16;;;;;;;4.70;2.13;;;15.50;99.90;;;;;;10448841;28;20219;-78
2022/10/06 03:55:16;;;;;;;3.50;1.40;;;15.50;99.90;;;;;;10432841;28;20188;-77
2022/10/06 04:00:17;;;;;;;2.57;1.50;;;15.40;99.90;;;;;;10448633;28;20639;-78
2022/10/06 04:05:18;;;;;;;2.83;1.10;;;15.40;99.90;;;;;;10448581;28;20230;-76
2022/10/06 04:10:18;;;;;;;3.40;0.80;;;15.30;99.90;;;;;;10449336;28;20215;-73
2022/10/06 04:15:19;;;;;;;2.77;0.90;;;15.30;99.90;;;;;;10447446;28;20184;-76
2022/10/06 04:20:19;;;;;;;2.83;0.83;;;15.30;99.90;;;;;;10448440;28;20185;-76
2022/10/06 04:25:20;;;;;;;3.03;1.17;;;15.30;99.90;;;;;;10463455;28;20250;-76
2022/10/06 04:30:21;;;;;;;3.73;1.20;;;15.20;99.90;;;;;;10448149;28;20200;-76
2022/10/06 04:35:22;;;;;;;3.70;0.97;;;15.20;99.90;;;;;;10446275;28;20188;-75
2022/10/06 04:40:22;;;;;;;3.60;1.00;;;15.20;99.90;;;;;;10446964;28;20222;-76
2022/10/06 04:45:23;;;;;;;1.50;0.60;;;15.20;99.90;;;;;;10445747;28;20227;-72
2022/10/06 04:50:24;;;;;;;2.97;1.10;;;15.10;99.90;;;;;;10447220;28;20235;-72
2022/10/06 04:55:24;;;;;;;2.97;0.87;;;15.20;99.90;;;;;;10447384;28;20753;-72
2022/10/06 05:00:25;;;;;;;4.60;1.43;;;15.20;99.90;;;;;;10447826;28;20219;-72
2022/10/06 05:05:26;;;;;;;3.73;1.17;;;15.10;99.90;;;;;;10446063;28;20246;-75
2022/10/06 05:10:27;;;;;;;3.53;1.10;;;15.10;99.90;;;;;;10445991;28;20323;-75
2022/10/06 05:15:28;;;;;;;3.87;2.77;;;15.10;99.90;;;;;;10445925;28;20223;-74
2022/10/06 05:20:28;;;;;;;3.17;1.07;;;15.10;99.90;;;;;;10447072;28;20686;-73
2022/10/06 05:25:29;;;;;;;3.03;1.93;;;15.10;99.90;;;;;;10444864;28;20224;-74
2022/10/06 05:30:29;;;;;;;4.73;2.00;;;15.00;99.90;;;;;;10445757;28;20224;-74
2022/10/06 05:35:30;;;;;;;2.27;1.40;;;15.00;99.90;;;;;;10446217;28;20220;-74
2022/10/06 05:40:31;;;;;;;3.37;1.50;;;14.90;99.90;;;;;;10446089;28;20226;-75
2022/10/06 05:45:31;;;;;;;4.33;1.30;;;14.70;99.90;;;;;;10445574;28;20706;-75
2022/10/06 05:50:32;;;;;;;5.57;1.53;;;14.60;99.90;;;;;;10453470;28;20991;-75
2022/10/06 05:55:32;;;;;;;4.47;1.53;;;14.50;99.90;;;;;;10453992;28;20216;-75
2022/10/06 06:00:33;;;;;;;6.17;1.40;;;14.40;99.90;;;;;;10453629;28;20255;-74
2022/10/06 06:05:40;;;;;;;4.17;1.10;;;14.30;99.90;;;;;;10456067;28;20212;-74
2022/10/06 06:10:40;;;;;;;4.90;1.10;;;14.10;99.90;;;;;;10458156;28;20263;-74
2022/10/06 06:15:59;;;;;;;4.57;1.17;;;14.00;99.90;;;;;;10453207;28;20230;-74
2022/10/06 06:21:02;;;;;;;5.17;1.50;;;14.00;99.90;;;;;;10453225;28;20218;-75
2022/10/06 06:26:06;;;;;;;4.77;1.70;;;14.20;99.90;;;;;;10453246;28;20209;-75
2022/10/06 06:31:12;;;;;;;5.23;2.47;;;14.30;99.90;;;;;;10451938;28;20320;-74
2022/10/06 06:36:16;;;;;;;6.67;2.60;;;14.50;99.90;;;;;;10451708;28;20707;-74
2022/10/06 06:41:23;;;;;;;8.03;2.63;;;14.60;99.90;;;;;;10444872;28;20721;-74
2022/10/06 06:46:26;;;;;;;8.20;2.30;;;14.70;99.90;;;;;;10452840;28;20219;-74
2022/10/06 06:51:26;;;;;;;8.57;2.17;;;14.90;99.90;;;;;;10452286;28;20223;-75
2022/10/06 06:56:28;;;;;;;8.13;2.03;;;14.90;99.90;;;;;;10451951;28;20734;-75
2022/10/06 07:01:31;;;;;;;6.83;3.23;;;14.90;99.90;;;;;;10450115;28;20228;-75
2022/10/06 07:06:38;;;;;;;7.97;2.73;;;15.00;99.90;;;;;;10452071;28;20228;-75
2022/10/06 07:11:39;;;;;;;5.83;2.00;;;15.40;99.90;;;;;;10450854;28;20754;-74
2022/10/06 07:27:25;;;;;;;7.50;1.87;;;17.70;99.90;;;;;;10444630;28;20219;-75
2022/10/06 07:32:29;;;;;;;5.10;1.97;;;23.10;99.90;;;;;;10448864;28;20247;-75
2022/10/06 07:37:30;;;;;;;5.53;1.83;;;27.00;91.40;;;;;;10450029;28;20230;-75
2022/10/06 07:42:46;;;;;;;6.60;2.20;;;29.70;66.20;;;;;;10448985;28;20647;-75
2022/10/06 07:47:47;;;;;;;5.97;2.10;;;31.50;53.80;;;;;;10448736;28;20734;-75
2022/10/06 07:52:47;;;;;;;9.03;2.20;;;32.80;49.60;;;;;;10449547;28;20236;-75
2022/10/06 07:57:50;;;;;;;5.13;1.63;;;33.50;46.30;;;;;;10449027;28;20245;-75
2022/10/06 08:02:50;;;;;;;3.33;1.37;;;34.70;43.90;;;;;;10449127;28;20215;-75
2022/10/06 08:07:52;;;;;;;4.20;1.50;;;34.50;42.80;;;;;;10449511;28;20219;-74
2022/10/06 08:12:52;;;;;;;2.87;1.07;;;34.00;44.30;;;;;;10448351;28;20232;-75
2022/10/06 08:17:53;;;;;;;9.17;2.20;;;33.10;45.10;;;;;;10449204;28;20598;-75
2022/10/06 08:22:54;;;;;;;3.73;1.50;;;30.70;45.50;;;;;;10447740;28;20809;-76
2022/10/06 08:27:54;;;;;;;6.47;2.13;;;30.60;44.80;;;;;;10447214;28;20261;-75
2022/10/06 08:32:56;;;;;;;7.83;1.90;;;32.20;42.40;;;;;;10448188;28;20322;-75
2022/10/06 08:38:00;;;;;;;3.43;1.60;;;33.00;41.80;;;;;;10448303;28;20679;-75
2022/10/06 08:43:01;;;;;;;4.27;1.70;;;33.70;38.00;;;;;;10446365;28;20249;-74
2022/10/06 08:48:07;;;;;;;5.20;1.80;;;32.70;39.30;;;;;;10446020;28;20258;-75
2022/10/06 08:53:22;;;;;;;11.50;2.30;;;31.30;41.70;;;;;;10447319;28;20708;-76
2022/10/06 08:58:53;;;;;;;6.73;2.03;;;31.10;42.30;;;;;;10446609;28;20248;-75
2022/10/06 09:04:00;;;;;;;7.50;2.37;;;31.00;41.90;;;;;;10446802;28;20276;-75
2022/10/06 09:09:26;;;;;;;6.37;2.00;;;29.90;43.60;;;;;;10446733;28;20588;-75
2022/10/06 09:14:36;;;;;;;5.20;2.17;;;31.00;41.60;;;;;;10433789;28;20224;-74
2022/10/06 09:19:55;;;;;;;6.37;2.30;;;32.40;40.20;;;;;;10446352;28;20235;-74
2022/10/06 09:25:00;;;;;;;3.90;1.80;;;33.50;37.50;;;;;;10446476;28;20389;-75
2022/10/06 09:30:03;;;;;;;5.93;1.80;;;35.50;36.10;;;;;;10446569;28;20225;-75
2022/10/06 09:35:19;;;;;;;6.93;2.10;;;36.40;33.30;;;;;;10445152;28;20231;-75
2022/10/06 09:40:34;;;;;;;7.47;2.37;;;37.00;31.40;;;;;;10439531;28;20243;-75
2022/10/06 09:45:35;;;;;;;5.07;2.20;;;37.60;30.30;;;;;;10447005;28;20222;-75
2022/10/06 09:50:36;;;;;;;5.03;2.00;;;37.30;30.90;;;;;;10445638;28;20234;-75
2022/10/06 09:55:36;;;;;;;7.93;2.40;;;38.50;28.90;;;;;;10445861;28;20254;-76
2022/10/06 10:00:46;;;;;;;6.73;2.47;;;39.30;27.60;;;;;;10445873;28;20220;-76
2022/10/06 10:05:49;;;;;;;6.40;2.30;;;38.70;27.70;;;;;;10444777;28;20247;-75
2022/10/06 10:12:23;;;;;;;4.30;1.97;;;38.10;28.50;;;;;;10444927;28;20251;-75
2022/10/06 10:16:34;;;;;;;8.80;2.33;;;37.80;28.00;;;;;;10439270;28;20683;-75
2022/10/06 10:21:35;;;;;;;8.20;1.90;;;36.50;29.10;;;;;;10445284;28;20227;-75
2022/10/06 10:26:52;;;;;;;23.77;2.70;;;35.40;28.90;;;;;;10461025;28;20219;-75
2022/10/06 10:32:20;;;;;;;6.90;2.10;;;35.20;30.00;;;;;;10445295;28;20763;-75
2022/10/06 10:37:42;;;;;;;5.97;1.90;;;36.00;29.50;;;;;;10444181;28;20234;-75
2022/10/06 10:43:06;;;;;;;6.03;2.00;;;36.60;29.20;;;;;;10451100;28;20226;-75
2022/10/06 10:48:22;;;;;;;7.50;2.00;;;36.80;28.50;;;;;;10452452;28;20561;-74
2022/10/06 10:53:41;;;;;;;6.00;2.50;;;36.50;29.10;;;;;;10465334;28;20235;-74
2022/10/06 10:58:45;;;;;;;6.13;1.93;;;35.20;30.00;;;;;;10435359;28;20226;-74
2022/10/06 11:03:55;;;;;;;6.53;2.33;;;35.50;29.80;;;;;;10414204;28;20226;-75
2022/10/06 11:09:11;;;;;;;4.80;2.27;;;36.20;29.20;;;;;;10410380;28;20285;-75
2022/10/06 11:14:33;;;;;;;9.70;2.60;;;34.40;29.70;;;;;;10443865;28;20347;-75
2022/10/06 11:20:00;;;;;;;7.87;2.30;;;30.10;36.20;;;;;;10446152;28;20332;-75
2022/10/06 11:25:20;;;;;;;7.80;2.03;;;27.20;40.90;;;;;;10420194;28;20596;-75
2022/10/06 11:30:25;;;;;;;7.40;2.60;;;25.50;44.00;;;;;;10449946;28;20225;-75
2022/10/06 11:35:33;;;;;;;8.63;2.40;;;24.30;48.50;;;;;;10450551;28;20303;-75
2022/10/06 11:40:59;;;;;;;8.17;2.23;;;23.70;49.60;;;;;;10450535;28;20247;-74
2022/10/06 11:46:03;;;;;;;6.93;2.60;;;23.10;49.30;;;;;;10448598;28;20261;-74
2022/10/06 11:51:22;;;;;;;7.97;2.37;;;22.70;50.50;;;;;;10447950;28;20242;-73
2022/10/06 11:56:36;;;;;;;8.70;2.23;;;22.40;50.80;;;;;;10443234;28;20705;-74
2022/10/06 12:01:37;;;;;;;7.57;2.03;;;22.20;52.10;;;;;;10448508;28;20219;-74
2022/10/06 12:06:44;;;;;;;7.23;2.33;;;22.00;52.30;;;;;;10448206;28;20226;-73
2022/10/06 12:11:45;;;;;;;7.00;2.23;;;21.70;52.90;;;;;;10448998;28;20340;-74
2022/10/06 12:16:49;;;;;;;6.40;2.20;;;21.70;52.60;;;;;;10448924;28;20229;-74
2022/10/06 12:22:08;;;;;;;8.37;2.13;;;21.60;53.40;;;;;;10448666;28;20227;-74
2022/10/06 12:27:25;;;;;;;8.67;2.00;;;21.60;53.70;;;;;;10447768;28;20302;-74
2022/10/06 12:32:41;;;;;;;5.07;1.70;;;21.40;52.90;;;;;;10441460;28;20227;-74
2022/10/06 12:37:51;;;;;;;9.67;1.70;;;21.20;53.30;;;;;;10448657;28;20225;-75
2022/10/06 12:43:28;;;;;;;7.03;2.17;;;21.20;53.80;;;;;;10446838;28;20639;-76
2022/10/06 12:48:56;;;;;;;6.00;2.00;;;21.10;55.40;;;;;;10432854;28;20350;-75
2022/10/06 12:54:03;;;;;;;8.40;2.63;;;21.10;55.40;;;;;;10446410;28;20605;-75
2022/10/06 12:59:38;;;;;;;9.53;2.00;;;21.00;55.00;;;;;;10446851;28;20261;-74
2022/10/06 13:04:41;;;;;;;4.83;1.67;;;20.90;54.80;;;;;;10423797;28;20934;-74
2022/10/06 13:09:43;;;;;;;7.87;1.97;;;20.80;54.70;;;;;;10447705;28;20219;-74
2022/10/06 13:14:44;;;;;;;7.80;1.83;;;20.70;54.90;;;;;;10446734;28;20227;-75
2022/10/06 13:19:45;;;;;;;7.07;1.40;;;20.40;56.00;;;;;;10446814;28;20211;-75
2022/10/06 13:24:46;;;;;;;3.97;1.63;;;20.20;56.20;;;;;;10446024;28;20264;-74
2022/10/06 13:29:47;;;;;;;6.73;1.67;;;20.00;56.40;;;;;;10446160;28;20223;-74
2022/10/06 13:34:48;;;;;;;4.10;1.50;;;19.90;57.10;;;;;;10446246;28;20560;-76
2022/10/06 13:39:48;;;;;;;8.10;2.00;;;19.90;56.70;;;;;;10445562;28;20236;-75
2022/10/06 13:44:53;;;;;;;7.80;2.30;;;19.90;57.90;;;;;;10444772;28;20642;-74
2022/10/06 13:50:13;;;;;;;5.33;1.63;;;19.90;58.40;;;;;;10444704;28;20211;-73
2022/10/06 13:55:22;;;;;;;7.27;1.90;;;20.00;58.90;;;;;;10443732;28;20246;-74
2022/10/06 14:00:27;;;;;;;5.47;1.83;;;19.90;58.50;;;;;;10438725;28;20194;-74
2022/10/06 14:05:40;;;;;;;4.90;1.43;;;19.90;59.40;;;;;;10446350;28;20235;-74
2022/10/06 14:11:21;;;;;;;6.40;1.80;;;19.80;59.10;;;;;;10447916;28;20716;-74
2022/10/06 14:16:27;;;;;;;7.60;1.80;;;19.70;59.80;;;;;;10348980;28;20691;-74
2022/10/06 14:21:34;;;;;;;3.47;1.30;;;19.70;57.90;;;;;;10420466;28;20254;-75
2022/10/06 14:26:35;;;;;;;3.87;1.60;;;19.70;57.70;;;;;;10452440;28;20851;-74
2022/10/06 14:31:36;;;;;;;3.07;1.10;;;19.60;58.00;;;;;;10452329;28;20310;-74
2022/10/06 14:36:40;;;;;;;7.47;1.47;;;19.40;58.50;;;;;;10451579;28;20226;-75
2022/10/06 14:41:41;;;;;;;5.77;1.37;;;19.30;59.20;;;;;;10452895;28;20590;-75
2022/10/06 14:46:46;;;;;;;6.43;1.57;;;19.20;59.30;;;;;;10452978;28;20230;-74
2022/10/06 14:51:47;;;;;;;5.80;1.50;;;19.20;60.90;;;;;;10452525;28;20237;-74
2022/10/06 14:56:52;;;;;;;6.80;1.67;;;19.20;61.60;;;;;;10452652;28;20225;-74
2022/10/06 15:01:52;;;;;;;7.63;1.60;;;19.00;60.40;;;;;;10450192;28;20257;-74
2022/10/06 15:12:13;;;;;;;4.43;1.40;;;18.80;62.00;;;;;;10450734;28;20238;-75
2022/10/06 15:17:13;;;;;;;4.30;1.40;;;18.70;62.90;;;;;;10450237;28;20258;-75
2022/10/06 15:22:14;;;;;;;4.83;1.50;;;18.60;63.20;;;;;;10448158;28;20729;-74
2022/10/06 15:32:34;;;;;;;4.20;1.13;;;18.40;65.30;;;;;;10444543;28;20221;-74
2022/10/06 15:37:34;;;;;;;7.90;1.50;;;18.30;65.00;;;;;;10450518;28;20353;-74
2022/10/06 15:42:35;;;;;;;5.93;1.27;;;18.10;66.00;;;;;;10448493;28;20324;-74
2022/10/06 15:47:35;;;;;;;4.70;1.60;;;17.90;67.00;;;;;;10447875;28;20249;-74
2022/10/06 15:52:36;;;;;;;9.40;2.20;;;17.80;67.60;;;;;;10448855;28;20221;-74
2022/10/06 15:57:36;;;;;;;3.43;1.30;;;17.70;68.70;;;;;;10449756;28;20893;-74
2022/10/06 16:02:37;;;;;;;4.37;1.27;;;17.50;70.20;;;;;;10448874;28;20217;-74
2022/10/06 16:07:37;;;;;;;5.50;1.67;;;17.40;70.80;;;;;;10447178;28;20274;-74
2022/10/06 16:12:38;;;;;;;7.60;1.57;;;17.20;71.90;;;;;;10449428;28;20251;-74
2022/10/06 16:17:39;;;;;;;4.83;1.97;;;17.10;73.90;;;;;;10448828;28;20215;-73
2022/10/06 16:22:39;;;;;;;6.30;1.80;;;16.90;75.20;;;;;;10447006;28;20220;-74
2022/10/06 16:27:40;;;;;;;8.67;1.50;;;16.70;77.00;;;;;;10448612;28;20216;-74
2022/10/06 16:32:40;;;;;;;5.23;1.83;;;16.50;78.20;;;;;;10445897;28;20246;-75
2022/10/06 16:37:47;;;;;;;6.60;1.90;;;16.30;79.40;;;;;;10446832;28;20224;-74
2022/10/06 16:42:50;;;;;;;16.77;4.17;;;16.20;82.80;;;;;;10447103;28;20254;-74
2022/10/06 16:47:50;;;;;;;4.90;1.80;;;16.00;86.20;;;;;;10447890;28;20224;-74
2022/10/06 16:52:51;;;;;;;9.17;2.30;;;15.80;88.90;;;;;;10447357;28;20289;-74
2022/10/06 16:57:54;;;;;;;10.10;2.67;;;15.60;91.00;;;;;;10447126;28;20227;-74
2022/10/06 17:02:55;;;;;;;10.40;2.63;;;15.50;93.20;;;;;;10446456;28;20717;-75
2022/10/06 17:07:55;;;;;;;9.17;2.20;;;15.30;97.30;;;;;;10447703;28;20227;-75
2022/10/06 17:12:56;;;;;;;7.97;2.27;;;15.10;99.90;;;;;;10445807;28;20227;-75
2022/10/06 17:17:56;;;;;;;6.23;2.17;;;15.00;99.90;;;;;;10447149;28;20231;-74
2022/10/06 17:22:59;;;;;;;7.53;2.50;;;14.80;99.90;;;;;;10446998;28;20221;-74
2022/10/06 17:27:59;;;;;;;10.07;2.80;;;14.60;99.90;;;;;;10447049;28;20221;-75
2022/10/06 17:33:00;;;;;;;6.63;2.47;;;14.50;99.90;;;;;;10445299;28;20231;-73
2022/10/06 17:38:08;;;;;;;5.63;2.23;;;14.30;99.90;;;;;;10447296;28;20216;-73
2022/10/06 17:43:09;;;;;;;8.83;3.07;;;14.20;99.90;;;;;;10449457;28;20221;-73
2022/10/06 17:48:11;;;;;;;9.07;4.07;;;14.10;99.90;;;;;;10452148;28;20215;-74
2022/10/06 17:53:11;;;;;;;12.47;4.60;;;14.00;99.90;;;;;;10452310;28;20307;-73
2022/10/06 17:58:12;;;;;;;8.17;3.70;;;13.90;99.90;;;;;;10452205;28;20679;-73
2022/10/06 18:03:13;;;;;;;11.57;6.20;;;13.90;99.90;;;;;;10453578;28;20605;-73
2022/10/06 18:08:13;;;;;;;10.80;6.20;;;14.00;99.90;;;;;;10452340;28;20273;-75
2022/10/06 18:13:14;;;;;;;10.43;5.10;;;13.90;99.90;;;;;;10452988;28;20792;-73
2022/10/06 18:18:15;;;;;;;9.07;5.13;;;13.70;99.90;;;;;;10452407;28;20568;-74
2022/10/06 18:23:15;;;;;;;9.77;4.60;;;13.60;99.90;;;;;;10444647;28;20211;-74
2022/10/06 18:28:16;;;;;;;8.97;4.80;;;13.50;99.90;;;;;;10452642;28;20231;-74
2022/10/06 18:33:17;;;;;;;8.93;4.90;;;13.40;99.90;;;;;;10450324;28;20878;-75
2022/10/06 18:38:17;;;;;;;9.00;4.80;;;13.30;99.90;;;;;;10452678;28;20224;-75
2022/10/06 18:43:19;;;;;;;14.57;5.43;;;13.20;99.90;;;;;;10451179;28;20346;-74
2022/10/06 18:53:39;;;;;;;11.57;4.93;;;13.00;99.90;;;;;;10450391;28;20224;-75
2022/10/06 18:58:40;;;;;;;13.17;4.53;;;13.00;99.90;;;;;;10449880;28;20223;-75
2022/10/06 19:03:41;;;;;;;12.50;5.77;;;12.90;99.90;;;;;;10450329;28;20693;-74
2022/10/06 19:08:41;;;;;;;13.50;5.70;;;12.80;99.90;;;;;;10451201;28;20581;-74
2022/10/06 19:13:47;;;;;;;12.57;5.83;;;12.70;99.90;;;;;;10449175;28;20827;-74
2022/10/06 19:18:48;;;;;;;15.10;6.23;;;12.70;99.90;;;;;;10449347;28;20212;-74
2022/10/06 19:23:49;;;;;;;13.07;5.03;;;12.70;99.90;;;;;;10448601;28;20208;-74
2022/10/06 19:28:49;;;;;;;9.57;4.87;;;12.60;99.90;;;;;;10449374;28;20220;-74
2022/10/06 19:33:50;;;;;;;8.63;4.43;;;12.50;99.90;;;;;;10447026;28;20337;-74
2022/10/06 19:38:52;;;;;;;10.67;4.83;;;12.50;99.90;;;;;;10447671;28;20223;-75
2022/10/06 19:43:53;;;;;;;9.33;4.70;;;12.40;99.90;;;;;;10451111;28;20238;-75
2022/10/06 19:48:55;;;;;;;10.47;4.03;;;12.40;99.90;;;;;;10451105;28;20211;-75
2022/10/06 19:53:55;;;;;;;10.63;3.80;;;12.30;99.90;;;;;;10449980;28;20219;-75
2022/10/06 19:58:59;;;;;;;8.93;3.23;;;12.40;99.90;;;;;;10450523;28;20224;-73
2022/10/06 20:04:05;;;;;;;13.50;6.83;;;12.40;99.90;;;;;;10448512;28;20212;-74
2022/10/06 20:09:11;;;;;;;12.23;6.40;;;12.40;99.90;;;;;;10464288;28;20246;-75
2022/10/06 20:14:19;;;;;;;9.23;5.10;;;12.30;99.90;;;;;;10447464;28;20567;-75
2022/10/06 20:19:20;;;;;;;9.67;4.67;;;12.20;99.90;;;;;;10457219;28;20212;-75
2022/10/06 20:24:23;;;;;;;13.73;4.77;;;12.10;99.90;;;;;;10449251;28;20287;-75
2022/10/06 20:29:25;;;;;;;11.20;4.93;;;12.10;99.90;;;;;;10446603;28;20228;-74
2022/10/06 20:34:30;;;;;;;10.30;4.57;;;12.10;99.90;;;;;;10448663;28;20349;-73
2022/10/06 20:44:51;;;;;;;10.77;4.30;;;12.20;99.90;;;;;;10447915;28;20738;-73
2022/10/06 20:49:53;;;;;;;9.23;4.17;;;12.20;99.90;;;;;;10447907;28;20296;-73
2022/10/06 20:54:54;;;;;;;10.20;4.57;;;12.10;99.90;;;;;;10448312;28;20227;-76
2022/10/06 20:59:55;;;;;;;11.93;4.30;;;12.00;99.90;;;;;;10447642;28;20230;-76
2022/10/06 21:04:56;;;;;;;9.73;4.57;;;11.80;99.90;;;;;;10446354;28;20250;-77
2022/10/06 21:09:57;;;;;;;10.20;4.90;;;11.70;99.90;;;;;;10448069;28;20220;-77
2022/10/06 21:14:57;;;;;;;9.73;4.53;;;11.50;99.90;;;;;;10448052;28;20235;-76
2022/10/06 21:19:58;;;;;;;10.03;3.97;;;11.30;99.90;;;;;;10446167;28;20216;-75
2022/10/06 21:24:58;;;;;;;11.93;3.90;;;11.10;99.90;;;;;;10446909;28;20219;-75
2022/10/06 21:29:59;;;;;;;13.23;4.33;;;11.00;99.90;;;;;;10445921;28;20257;-74
2022/10/06 21:34:59;;;;;;;10.57;4.10;;;10.90;99.90;;;;;;10446535;28;20211;-74
2022/10/06 21:40:00;;;;;;;9.43;4.83;;;10.80;99.90;;;;;;10447253;28;20248;-75
2022/10/06 21:45:00;;;;;;;13.97;5.17;;;10.70;99.90;;;;;;10446293;28;20617;-75
2022/10/06 21:50:01;;;;;;;10.27;4.77;;;10.70;99.90;;;;;;10447682;28;20219;-75
2022/10/06 21:55:02;;;;;;;7.67;4.50;;;10.60;99.90;;;;;;10445457;28;20212;-75
2022/10/06 22:00:04;;;;;;;7.37;3.80;;;10.60;99.90;;;;;;10446174;28;20226;-75
2022/10/06 22:05:04;;;;;;;8.17;4.27;;;10.50;99.90;;;;;;10446545;28;20242;-74
2022/10/06 22:10:05;;;;;;;11.63;4.37;;;10.50;99.90;;;;;;10446389;28;20195;-75
2022/10/06 22:15:06;;;;;;;8.20;4.43;;;10.50;99.90;;;;;;10446572;28;20197;-76
2022/10/06 22:20:08;;;;;;;8.20;4.13;;;10.40;99.90;;;;;;10446043;28;20264;-76
2022/10/06 22:25:08;;;;;;;10.07;4.77;;;10.40;99.90;;;;;;10446413;28;20230;-76
2022/10/06 22:30:10;;;;;;;9.70;4.27;;;10.40;99.90;;;;;;10446694;28;20188;-76
2022/10/06 22:35:10;;;;;;;11.77;4.80;;;10.30;99.90;;;;;;10453843;28;20683;-74
2022/10/06 22:40:11;;;;;;;9.03;4.00;;;10.30;99.90;;;;;;10453925;28;20180;-74
2022/10/06 22:45:11;;;;;;;10.37;4.20;;;10.30;99.90;;;;;;10452908;28;20191;-73
2022/10/06 22:50:12;;;;;;;7.37;3.70;;;10.20;99.90;;;;;;10451989;28;20207;-73
2022/10/06 22:55:12;;;;;;;10.77;3.90;;;10.20;99.90;;;;;;10454020;28;20720;-74
2022/10/06 23:00:13;;;;;;;13.03;4.00;;;10.20;99.90;;;;;;10453457;28;20195;-73
2022/10/06 23:05:17;;;;;;;8.17;3.40;;;10.20;99.90;;;;;;10426917;28;20196;-74
2022/10/06 23:10:19;;;;;;;13.47;3.30;;;10.20;99.90;;;;;;10403095;28;20214;-75
2022/10/06 23:15:20;;;;;;;6.97;3.00;;;10.10;99.90;;;;;;10410676;28;20177;-73
2022/10/06 23:20:21;;;;;;;8.90;3.30;;;10.20;99.90;;;;;;10409741;28;20193;-74
2022/10/06 23:25:21;;;;;;;7.30;3.43;;;10.00;99.90;;;;;;10425727;28;20245;-72
2022/10/06 23:30:22;;;;;;;5.90;3.23;;;9.90;99.90;;;;;;10410384;28;20212;-72
2022/10/06 23:35:22;;;;;;;9.03;3.83;;;9.90;99.90;;;;;;10409455;28;20177;-74
2022/10/06 23:40:23;;;;;;;8.13;3.73;;;9.80;99.90;;;;;;10408761;28;20200;-73
2022/10/06 23:45:23;;;;;;;8.90;4.07;;;9.80;99.90;;;;;;10408193;28;20401;-74
2022/10/06 23:50:24;;;;;;;7.70;3.63;;;9.60;99.90;;;;;;10409885;28;20243;-75
2022/10/06 23:55:25;;;;;;;10.57;4.03;;;9.40;99.90;;;;;;10409468;28;20229;-74
